Time;durP1;ratioP1;P1;durP2;ratioP2;P2;SDS_P1;SDS_P2;PMS_P1;PMS_P2;Temp;Humidity;BMP_temperature;BMP_pressure;BME280_temperature;BME280_humidity;BME280_pressure;Samples;Min_cycle;Max_cycle;Signal;HPM_P1;HPM_P2
2022/10/29 00:00:26;;;;;;;36.90;7.85;;;13.50;99.90;;;;;;5070495;28;20052;-84
2022/10/29 00:02:52;;;;;;;32.47;7.60;;;13.50;99.90;;;;;;5068570;28;20483;-83
2022/10/29 00:05:17;;;;;;;34.65;8.00;;;13.50;99.90;;;;;;5070337;28;20040;-84
2022/10/29 00:07:43;;;;;;;37.28;8.85;;;14.20;99.90;;;;;;5068870;28;20055;-84
2022/10/29 00:10:09;;;;;;;36.95;8.68;;;13.50;99.90;;;;;;5069997;28;20043;-84
2022/10/29 00:12:35;;;;;;;31.60;8.10;;;13.40;99.90;;;;;;5054089;28;20080;-84
2022/10/29 00:15:02;;;;;;;32.55;8.68;;;13.50;99.90;;;;;;5055859;28;20066;-84
2022/10/29 00:17:27;;;;;;;32.47;7.85;;;13.40;99.90;;;;;;5058571;28;20050;-85
2022/10/29 00:19:53;;;;;;;32.95;8.05;;;13.50;99.90;;;;;;5073614;28;20127;-84
2022/10/29 00:22:18;;;;;;;33.15;8.35;;;13.40;99.90;;;;;;5078522;28;20048;-84
2022/10/29 00:24:44;;;;;;;30.10;8.70;;;13.40;99.90;;;;;;5080520;28;20059;-84
2022/10/29 00:27:10;;;;;;;35.22;7.78;;;13.40;99.90;;;;;;5094414;28;20043;-84
2022/10/29 00:29:35;;;;;;;36.50;8.23;;;13.40;99.90;;;;;;5076529;28;20068;-84
2022/10/29 00:32:01;;;;;;;41.03;7.53;;;13.60;99.90;;;;;;5098162;28;20495;-84
2022/10/29 00:34:28;;;;;;;48.55;8.45;;;13.30;99.90;;;;;;5091182;28;20036;-84
2022/10/29 00:36:53;;;;;;;44.25;8.13;;;13.60;99.90;;;;;;5077951;28;20043;-84
2022/10/29 00:39:20;;;;;;;46.50;8.27;;;13.30;99.90;;;;;;5112517;28;20028;-85
2022/10/29 00:41:46;;;;;;;40.40;8.18;;;13.30;99.90;;;;;;5094362;28;20032;-85
2022/10/29 00:44:14;;;;;;;39.85;8.70;;;13.20;99.90;;;;;;5095178;28;20042;-84
2022/10/29 00:46:44;;;;;;;40.10;8.70;;;13.20;99.90;;;;;;5093909;28;20096;-84
2022/10/29 00:49:10;;;;;;;46.50;9.45;;;13.50;99.90;;;;;;5078451;28;20052;-84
2022/10/29 00:51:37;;;;;;;40.38;8.35;;;13.20;99.90;;;;;;5053626;28;20457;-84
2022/10/29 00:54:09;;;;;;;43.20;9.50;;;14.20;99.90;;;;;;5069321;28;20097;-85
2022/10/29 00:56:41;;;;;;;45.80;8.63;;;13.40;99.90;;;;;;5070704;28;20137;-84
2022/10/29 00:59:08;;;;;;;39.50;8.70;;;13.30;99.90;;;;;;5068967;28;20091;-84
2022/10/29 01:01:35;;;;;;;55.20;9.13;;;13.20;99.90;;;;;;5070071;28;20055;-84
2022/10/29 01:04:02;;;;;;;42.40;9.05;;;13.20;99.90;;;;;;5052987;28;20044;-84
2022/10/29 01:06:29;;;;;;;43.10;9.02;;;14.30;99.90;;;;;;5067831;28;20127;-84
2022/10/29 01:08:55;;;;;;;62.10;10.27;;;13.20;99.90;;;;;;5051844;28;20594;-85
2022/10/29 01:11:47;;;;;;;46.35;9.70;;;13.20;99.90;;;;;;5051533;28;20040;-85
2022/10/29 01:14:29;;;;;;;57.13;10.00;;;13.20;99.90;;;;;;5068177;28;20071;-84
2022/10/29 01:17:17;;;;;;;53.60;9.23;;;13.20;99.90;;;;;;5068702;28;20044;-85
2022/10/29 01:20:11;;;;;;;37.95;10.05;;;13.20;99.90;;;;;;5067246;28;20100;-85
2022/10/29 01:23:00;;;;;;;53.95;10.45;;;13.20;99.90;;;;;;5050879;28;20105;-84
2022/10/29 01:25:58;;;;;;;61.13;9.85;;;13.20;99.90;;;;;;5036049;28;20495;-85
2022/10/29 01:28:49;;;;;;;76.72;11.15;;;13.20;99.90;;;;;;5050234;28;20395;-84
2022/10/29 01:31:29;;;;;;;44.65;9.93;;;13.20;99.90;;;;;;5068690;28;20040;-84
2022/10/29 01:34:16;;;;;;;95.47;11.18;;;13.20;99.90;;;;;;5084323;28;20403;-85
2022/10/29 01:36:57;;;;;;;63.75;10.18;;;13.20;99.90;;;;;;5068079;28;20059;-84
2022/10/29 01:39:54;;;;;;;50.17;8.93;;;13.20;99.90;;;;;;5068641;28;20063;-85
2022/10/29 01:42:30;;;;;;;49.83;11.27;;;13.20;99.90;;;;;;5050522;28;20048;-84
2022/10/29 01:45:22;;;;;;;97.20;12.52;;;13.20;99.90;;;;;;5050879;28;20044;-84
2022/10/29 01:48:10;;;;;;;134.80;12.88;;;13.20;99.90;;;;;;5068150;28;20040;-85
2022/10/29 01:50:38;;;;;;;109.53;12.35;;;13.20;99.90;;;;;;5067172;28;20052;-85
2022/10/29 01:53:06;;;;;;;102.85;13.15;;;13.20;99.90;;;;;;5067915;28;20044;-85
2022/10/29 01:55:35;;;;;;;93.20;13.10;;;13.30;99.90;;;;;;5067522;28;20685;-85
2022/10/29 01:58:05;;;;;;;78.75;12.57;;;13.30;99.90;;;;;;5066780;28;20499;-84
2022/10/29 02:00:47;;;;;;;106.40;13.90;;;13.30;99.90;;;;;;5064764;28;20511;-84
2022/10/29 02:03:22;;;;;;;74.13;12.50;;;14.30;99.90;;;;;;5083269;28;20039;-85
2022/10/29 02:06:09;;;;;;;65.50;10.85;;;14.10;99.90;;;;;;5067952;28;20326;-85
2022/10/29 02:08:47;;;;;;;54.47;10.68;;;13.30;99.90;;;;;;5067063;28;20051;-84
2022/10/29 02:11:23;;;;;;;78.93;11.02;;;13.30;99.90;;;;;;5066686;28;20487;-85
2022/10/29 02:14:27;;;;;;;78.30;10.80;;;13.30;99.90;;;;;;5068217;28;20072;-85
2022/10/29 02:16:54;;;;;;;78.93;12.05;;;13.30;99.90;;;;;;5046052;28;20511;-85
2022/10/29 02:19:20;;;;;;;93.55;12.77;;;13.20;99.90;;;;;;5066600;28;20052;-84
2022/10/29 02:21:46;;;;;;;30.40;9.50;;;13.20;99.90;;;;;;5067466;28;20044;-85
2022/10/29 02:24:11;;;;;;;20.05;9.52;;;13.20;99.90;;;;;;5066244;28;20040;-85
2022/10/29 02:26:37;;;;;;;25.85;9.02;;;13.20;99.90;;;;;;5051570;28;20043;-85
2022/10/29 02:29:02;;;;;;;27.95;10.50;;;13.10;99.90;;;;;;5066272;28;20051;-85
2022/10/29 02:31:28;;;;;;;158.93;17.67;;;13.30;99.90;;;;;;5064186;28;20046;-84
2022/10/29 02:33:54;;;;;;;42.67;11.27;;;13.10;99.90;;;;;;5075630;28;20044;-85
2022/10/29 02:36:20;;;;;;;95.45;14.05;;;13.10;99.90;;;;;;5066605;28;20036;-85
2022/10/29 02:38:45;;;;;;;53.38;12.65;;;13.40;99.90;;;;;;5051272;28;20082;-85
2022/10/29 02:41:11;;;;;;;81.10;13.43;;;13.10;99.90;;;;;;5065893;28;20036;-85
2022/10/29 02:43:37;;;;;;;59.90;12.07;;;13.80;99.90;;;;;;5066805;28;20083;-85
2022/10/29 02:46:17;;;;;;;135.07;18.08;;;13.20;99.90;;;;;;5065840;28;20069;-85
2022/10/29 02:48:42;;;;;;;121.05;14.15;;;13.20;99.90;;;;;;5050832;28;20051;-84
2022/10/29 02:51:09;;;;;;;51.20;12.02;;;13.30;99.90;;;;;;5066841;28;20036;-85
2022/10/29 02:53:34;;;;;;;138.98;13.75;;;13.20;99.90;;;;;;5066447;28;20043;-85
2022/10/29 02:56:00;;;;;;;60.03;10.07;;;13.30;99.90;;;;;;5066921;28;20044;-85
2022/10/29 02:58:26;;;;;;;61.03;9.77;;;13.10;99.90;;;;;;5083805;28;20115;-85
2022/10/29 03:00:53;;;;;;;98.28;11.13;;;14.10;99.90;;;;;;5083920;28;20532;-84
2022/10/29 03:03:19;;;;;;;78.32;8.77;;;13.20;99.90;;;;;;5066318;28;20395;-85
2022/10/29 03:05:45;;;;;;;43.65;6.35;;;13.10;99.90;;;;;;5067174;28;20044;-85
2022/10/29 03:08:10;;;;;;;75.68;9.63;;;13.10;99.90;;;;;;5066298;28;20384;-85
2022/10/29 03:10:36;;;;;;;107.47;11.13;;;13.20;99.90;;;;;;5049959;28;20051;-85
2022/10/29 03:13:02;;;;;;;88.57;9.32;;;13.50;99.90;;;;;;5067368;28;20055;-84
2022/10/29 03:15:27;;;;;;;27.13;6.32;;;13.10;99.90;;;;;;5066034;28;20051;-85
2022/10/29 03:17:53;;;;;;;89.28;9.73;;;13.10;99.90;;;;;;5067104;28;20416;-85
2022/10/29 03:20:19;;;;;;;22.17;6.55;;;13.10;99.90;;;;;;5066012;28;20055;-85
2022/10/29 03:22:45;;;;;;;44.15;6.55;;;13.40;99.90;;;;;;5066719;28;20050;-86
2022/10/29 03:25:10;;;;;;;57.67;7.45;;;13.10;99.90;;;;;;5066361;28;20051;-86
2022/10/29 03:27:41;;;;;;;25.58;6.43;;;13.10;99.90;;;;;;5067275;28;20044;-86
2022/10/29 03:30:11;;;;;;;142.65;13.23;;;13.10;99.90;;;;;;5067169;28;20066;-86
2022/10/29 03:32:47;;;;;;;72.78;9.50;;;13.10;99.90;;;;;;5066138;28;20131;-85
2022/10/29 03:35:14;;;;;;;35.17;6.07;;;13.10;99.90;;;;;;5068152;28;20442;-86
2022/10/29 03:37:40;;;;;;;78.53;7.22;;;13.10;99.90;;;;;;5065207;28;20131;-85
2022/10/29 03:40:07;;;;;;;74.20;7.68;;;13.10;99.90;;;;;;5066340;28;20127;-85
2022/10/29 03:42:33;;;;;;;26.02;5.93;;;13.10;99.90;;;;;;5066118;28;20048;-85
2022/10/29 03:45:00;;;;;;;33.67;6.45;;;13.20;99.90;;;;;;5065820;28;20380;-85
2022/10/29 03:47:27;;;;;;;94.32;8.63;;;13.10;99.90;;;;;;5083329;28;20076;-86
2022/10/29 03:49:53;;;;;;;98.50;11.07;;;13.10;99.90;;;;;;5069015;28;20076;-86
2022/10/29 03:52:20;;;;;;;20.13;6.65;;;13.10;99.90;;;;;;5070235;28;20075;-85
2022/10/29 03:54:45;;;;;;;114.13;12.00;;;13.50;99.90;;;;;;5052360;28;20461;-85
2022/10/29 03:57:11;;;;;;;26.52;7.03;;;13.10;99.90;;;;;;5069636;28;20131;-86
2022/10/29 03:59:37;;;;;;;42.20;6.38;;;13.10;99.90;;;;;;5069188;28;20374;-85
2022/10/29 04:02:02;;;;;;;90.40;7.82;;;13.10;99.90;;;;;;5069081;28;20036;-85
2022/10/29 04:04:28;;;;;;;53.65;7.95;;;13.10;99.90;;;;;;5087115;28;20075;-85
2022/10/29 04:06:54;;;;;;;44.13;6.28;;;13.10;99.90;;;;;;5068654;28;20100;-85
2022/10/29 04:09:19;;;;;;;102.68;11.15;;;13.20;99.90;;;;;;5070144;28;20130;-85
2022/10/29 04:11:46;;;;;;;48.55;7.25;;;13.00;99.90;;;;;;5051763;28;20042;-86
2022/10/29 04:14:12;;;;;;;77.88;7.95;;;13.00;99.90;;;;;;5052636;28;20047;-85
2022/10/29 04:16:38;;;;;;;105.40;11.02;;;13.00;99.90;;;;;;5069014;28;20394;-85
2022/10/29 04:19:03;;;;;;;65.78;8.68;;;13.00;99.90;;;;;;5045647;28;20433;-85
2022/10/29 04:21:29;;;;;;;32.58;7.28;;;13.00;99.90;;;;;;5087755;28;20488;-86
2022/10/29 04:23:55;;;;;;;53.97;8.23;;;13.00;99.90;;;;;;5069220;28;20613;-85
2022/10/29 04:26:20;;;;;;;21.60;6.30;;;13.80;99.90;;;;;;5069838;28;20044;-84
2022/10/29 04:28:50;;;;;;;66.60;9.15;;;13.40;99.90;;;;;;5068223;28;20056;-86
2022/10/29 04:31:17;;;;;;;31.35;6.32;;;13.10;99.90;;;;;;5069342;28;20417;-86
2022/10/29 04:33:42;;;;;;;67.07;7.40;;;12.90;99.90;;;;;;5069121;28;20394;-85
2022/10/29 04:36:09;;;;;;;47.13;6.20;;;12.90;99.90;;;;;;5069141;28;20036;-85
2022/10/29 04:38:34;;;;;;;39.10;5.47;;;12.90;99.90;;;;;;5069206;28;20040;-85
2022/10/29 04:41:01;;;;;;;28.38;6.55;;;13.20;99.90;;;;;;5068697;28;20357;-84
2022/10/29 04:43:27;;;;;;;30.02;6.32;;;12.80;99.90;;;;;;5069768;28;20123;-85
2022/10/29 04:45:55;;;;;;;25.75;5.80;;;12.90;99.90;;;;;;5067909;28;20249;-85
2022/10/29 04:48:23;;;;;;;58.92;7.60;;;12.80;99.90;;;;;;5068770;28;20036;-83
2022/10/29 04:50:49;;;;;;;44.97;6.93;;;12.80;99.90;;;;;;5068065;28;20097;-85
2022/10/29 04:53:15;;;;;;;32.78;6.15;;;13.60;99.90;;;;;;5068470;28;20044;-86
2022/10/29 04:55:41;;;;;;;63.03;7.75;;;12.80;99.90;;;;;;5069299;28;20372;-86
2022/10/29 04:58:12;;;;;;;70.90;6.75;;;12.80;99.90;;;;;;5068479;28;20063;-86
2022/10/29 05:00:40;;;;;;;42.65;6.03;;;12.80;99.90;;;;;;5069188;28;20491;-86
2022/10/29 05:03:06;;;;;;;57.28;8.07;;;12.80;99.90;;;;;;5067453;28;20487;-87
2022/10/29 05:05:31;;;;;;;63.22;7.07;;;12.80;99.90;;;;;;5069486;28;20052;-86
2022/10/29 05:07:58;;;;;;;49.63;7.35;;;12.80;99.90;;;;;;5068117;28;20487;-86
2022/10/29 05:10:30;;;;;;;86.78;8.10;;;12.90;99.90;;;;;;5068032;28;20074;-86
2022/10/29 05:13:01;;;;;;;72.22;7.85;;;12.90;99.90;;;;;;5068804;28;20052;-86
2022/10/29 05:15:27;;;;;;;51.10;6.32;;;13.20;99.90;;;;;;5067406;28;20088;-86
2022/10/29 05:17:54;;;;;;;53.55;6.25;;;12.90;99.90;;;;;;5048735;28;20098;-85
2022/10/29 05:20:20;;;;;;;71.10;7.68;;;13.60;99.90;;;;;;5079412;28;20081;-86
2022/10/29 05:22:46;;;;;;;75.38;6.97;;;13.10;99.90;;;;;;5068511;28;20135;-86
2022/10/29 05:25:12;;;;;;;47.42;5.50;;;12.90;99.90;;;;;;5068452;28;20123;-85
2022/10/29 05:27:38;;;;;;;35.38;5.30;;;12.90;99.90;;;;;;5068193;28;20527;-86
2022/10/29 05:30:05;;;;;;;88.80;9.07;;;12.10;99.90;;;;;;5068054;28;20126;-86
2022/10/29 05:32:30;;;;;;;19.70;5.25;;;12.90;99.90;;;;;;5066867;28;20040;-89
2022/10/29 05:34:56;;;;;;;33.13;5.30;;;12.90;99.90;;;;;;5085350;28;20043;-85
2022/10/29 05:37:26;;;;;;;22.20;5.15;;;12.90;99.90;;;;;;5066461;28;20090;-85
2022/10/29 05:39:55;;;;;;;59.97;6.35;;;12.90;99.90;;;;;;5060262;28;20637;-85
2022/10/29 05:42:21;;;;;;;42.10;5.90;;;12.90;99.90;;;;;;5067506;28;20044;-85
2022/10/29 05:44:47;;;;;;;41.88;6.22;;;13.00;99.90;;;;;;5067214;28;20096;-85
2022/10/29 05:47:12;;;;;;;30.05;5.72;;;12.80;99.90;;;;;;5067460;28;20131;-84
2022/10/29 05:49:38;;;;;;;54.15;6.30;;;12.90;99.90;;;;;;5066524;28;20108;-85
2022/10/29 05:52:03;;;;;;;13.35;5.38;;;12.80;99.90;;;;;;5068528;28;20432;-87
2022/10/29 05:54:29;;;;;;;39.20;6.47;;;12.80;99.90;;;;;;5066813;28;20123;-88
2022/10/29 05:56:57;;;;;;;50.78;7.32;;;12.80;99.90;;;;;;5067967;28;20044;-90
2022/10/29 05:59:22;;;;;;;18.63;5.88;;;13.20;99.90;;;;;;5050471;28;20048;-86
2022/10/29 06:01:48;;;;;;;64.38;7.40;;;12.80;99.90;;;;;;5050368;28;20073;-86
2022/10/29 06:04:14;;;;;;;36.83;7.20;;;12.80;99.90;;;;;;5051031;28;20109;-86
2022/10/29 06:06:39;;;;;;;47.00;6.70;;;12.80;99.90;;;;;;5066198;28;20056;-87
2022/10/29 06:09:05;;;;;;;43.03;9.10;;;12.80;99.90;;;;;;5067966;28;20122;-87
2022/10/29 06:11:31;;;;;;;29.17;7.40;;;12.80;99.90;;;;;;5048827;28;20105;-85
2022/10/29 06:13:57;;;;;;;32.25;7.85;;;13.40;99.90;;;;;;5067504;28;20040;-89
2022/10/29 06:16:22;;;;;;;34.10;6.80;;;13.00;99.90;;;;;;5049382;28;20050;-89
2022/10/29 06:18:48;;;;;;;27.67;7.13;;;12.70;99.90;;;;;;5050753;28;20415;-87
2022/10/29 06:21:14;;;;;;;21.15;6.50;;;12.70;99.90;;;;;;5067440;28;20044;-88
2022/10/29 06:23:39;;;;;;;15.77;6.25;;;13.00;99.90;;;;;;5049685;28;20040;-88
2022/10/29 06:26:05;;;;;;;41.25;7.63;;;12.80;99.90;;;;;;5068751;28;20134;-89
2022/10/29 06:28:31;;;;;;;18.08;7.10;;;12.70;99.90;;;;;;5066807;28;20040;-89
2022/10/29 06:30:57;;;;;;;65.97;9.18;;;12.70;99.90;;;;;;5068944;28;20603;-88
2022/10/29 06:33:22;;;;;;;15.50;6.30;;;13.10;99.90;;;;;;5071113;28;20040;-88
2022/10/29 06:35:48;;;;;;;35.47;7.10;;;12.70;99.90;;;;;;5072993;28;20474;-87
2022/10/29 06:38:14;;;;;;;28.15;7.43;;;12.70;99.90;;;;;;5074099;28;20048;-89
2022/10/29 06:40:41;;;;;;;18.02;6.45;;;12.70;99.90;;;;;;5074151;28;20440;-89
2022/10/29 06:43:10;;;;;;;26.52;7.97;;;12.70;99.90;;;;;;5074410;28;20036;-90
2022/10/29 06:45:36;;;;;;;58.03;8.57;;;12.80;99.90;;;;;;5070858;28;20042;-89
2022/10/29 06:48:04;;;;;;;48.95;8.23;;;12.80;99.90;;;;;;5068953;28;20123;-93
2022/10/29 06:50:30;;;;;;;46.53;8.68;;;12.80;99.90;;;;;;5069033;28;20036;-95
2022/10/29 06:53:05;;;;;;;27.17;7.68;;;12.80;99.90;;;;;;5069556;28;20048;-91
2022/10/29 06:55:33;;;;;;;22.95;7.22;;;12.80;99.90;;;;;;5068785;28;20086;-89
2022/10/29 06:58:04;;;;;;;28.27;7.50;;;12.90;99.90;;;;;;5066543;28;20491;-91
2022/10/29 07:00:31;;;;;;;21.42;7.38;;;13.10;99.90;;;;;;5067731;28;20091;-93
2022/10/29 07:02:57;;;;;;;21.88;7.40;;;12.90;99.90;;;;;;5084462;28;20420;-89
2022/10/29 07:05:23;;;;;;;22.15;6.93;;;12.90;99.90;;;;;;5067792;28;20085;-91
2022/10/29 07:07:53;;;;;;;24.15;6.78;;;12.90;99.90;;;;;;5049821;28;20044;-89
2022/10/29 07:10:18;;;;;;;30.77;6.95;;;13.30;99.90;;;;;;5066441;28;20193;-87
2022/10/29 07:12:44;;;;;;;23.13;6.00;;;13.00;99.90;;;;;;5066708;28;20036;-86
2022/10/29 07:15:13;;;;;;;20.90;5.38;;;13.00;99.90;;;;;;5082959;28;20059;-85
2022/10/29 07:17:39;;;;;;;23.17;6.55;;;13.00;99.90;;;;;;5067271;28;20051;-86
2022/10/29 07:20:06;;;;;;;24.13;6.13;;;13.10;99.90;;;;;;5065445;28;20044;-85
2022/10/29 07:22:32;;;;;;;26.75;6.57;;;13.10;99.90;;;;;;5067763;28;20622;-85
2022/10/29 07:24:58;;;;;;;23.20;6.85;;;13.10;99.90;;;;;;5070434;28;20036;-86
2022/10/29 07:27:24;;;;;;;34.70;6.68;;;13.10;99.90;;;;;;5053947;28;20461;-86
2022/10/29 07:29:49;;;;;;;21.13;6.63;;;13.10;99.90;;;;;;5070627;28;20046;-85
2022/10/29 07:32:15;;;;;;;34.25;7.03;;;13.10;99.90;;;;;;5053193;28;20040;-83
2022/10/29 07:34:41;;;;;;;18.38;7.00;;;13.10;99.90;;;;;;5070203;28;20036;-85
2022/10/29 07:37:06;;;;;;;41.13;8.25;;;13.20;99.90;;;;;;5069065;28;20044;-86
2022/10/29 07:39:32;;;;;;;50.95;9.15;;;13.20;99.90;;;;;;5071051;28;20074;-86
2022/10/29 07:41:58;;;;;;;40.78;9.32;;;13.20;99.90;;;;;;5069853;28;20043;-86
2022/10/29 07:44:23;;;;;;;81.25;10.35;;;13.30;99.90;;;;;;5070474;28;20522;-86
2022/10/29 07:46:49;;;;;;;64.07;10.63;;;12.60;99.90;;;;;;5053158;28;20044;-86
2022/10/29 07:49:15;;;;;;;32.72;10.52;;;13.30;99.90;;;;;;5069349;28;20048;-86
2022/10/29 07:51:41;;;;;;;59.15;9.15;;;13.40;99.90;;;;;;5037388;28;20483;-87
2022/10/29 07:54:06;;;;;;;57.13;9.32;;;13.40;99.90;;;;;;5052372;28;20040;-85
2022/10/29 07:56:32;;;;;;;52.85;8.95;;;13.50;99.90;;;;;;5070184;28;20044;-85
2022/10/29 07:58:58;;;;;;;95.93;11.80;;;13.50;99.90;;;;;;5085679;28;20052;-85
2022/10/29 08:01:23;;;;;;;61.28;10.35;;;13.50;99.90;;;;;;5069992;28;20044;-85
2022/10/29 08:03:50;;;;;;;40.15;10.23;;;13.60;99.90;;;;;;5070799;28;20146;-85
2022/10/29 08:06:16;;;;;;;107.78;13.38;;;13.60;99.90;;;;;;5053628;28;20133;-84
2022/10/29 08:08:41;;;;;;;111.63;14.45;;;13.70;99.90;;;;;;5070236;28;20130;-85
2022/10/29 08:11:07;;;;;;;44.00;11.38;;;14.00;99.90;;;;;;5068707;28;20044;-89
2022/10/29 08:13:33;;;;;;;50.70;11.10;;;13.70;99.90;;;;;;5053207;28;20059;-92
2022/10/29 08:15:59;;;;;;;63.25;12.70;;;13.80;99.90;;;;;;5052156;28;20043;-88
2022/10/29 08:18:25;;;;;;;80.82;14.07;;;13.90;99.90;;;;;;5021167;28;20287;-87
2022/10/29 08:20:50;;;;;;;70.70;12.82;;;13.90;99.90;;;;;;5052200;28;20044;-87
2022/10/29 08:23:16;;;;;;;53.15;11.90;;;13.90;99.90;;;;;;5068981;28;20048;-89
2022/10/29 08:25:43;;;;;;;98.05;25.08;;;13.90;99.90;;;;;;5070040;28;20036;-91
2022/10/29 08:28:14;;;;;;;51.78;12.77;;;14.00;99.90;;;;;;5052099;28;20384;-88
2022/10/29 08:30:40;;;;;;;53.88;12.32;;;14.50;99.90;;;;;;5070031;28;20441;-87
2022/10/29 08:33:07;;;;;;;48.35;13.35;;;14.00;99.90;;;;;;5068397;28;20173;-88
2022/10/29 08:35:33;;;;;;;51.25;13.40;;;14.10;99.90;;;;;;5068941;28;20044;-88
2022/10/29 08:37:59;;;;;;;62.75;13.75;;;14.50;99.90;;;;;;5068540;28;20048;-85
2022/10/29 08:40:38;;;;;;;52.90;13.95;;;14.20;99.90;;;;;;5069105;28;20040;-89
2022/10/29 08:43:25;;;;;;;55.97;15.40;;;14.50;99.90;;;;;;5072122;28;20048;-86
2022/10/29 08:45:53;;;;;;;54.38;17.08;;;14.20;99.90;;;;;;5067984;28;20185;-87
2022/10/29 08:48:22;;;;;;;51.33;18.20;;;14.30;99.90;;;;;;5069287;28;20048;-89
2022/10/29 08:50:52;;;;;;;69.03;18.35;;;14.40;99.90;;;;;;5068647;28;20048;-85
2022/10/29 08:53:30;;;;;;;50.03;17.10;;;14.40;99.90;;;;;;5052685;28;20116;-87
2022/10/29 08:55:57;;;;;;;55.65;18.45;;;14.40;99.90;;;;;;5070040;28;20060;-86
2022/10/29 08:59:00;;;;;;;49.28;18.08;;;14.00;99.90;;;;;;5067675;28;20095;-87
2022/10/29 09:01:26;;;;;;;53.00;18.45;;;14.60;99.90;;;;;;5068734;28;20044;-87
2022/10/29 09:03:53;;;;;;;49.28;19.83;;;14.70;99.90;;;;;;5052234;28;20131;-88
2022/10/29 09:06:32;;;;;;;53.00;20.90;;;14.70;99.90;;;;;;5068042;28;20051;-85
2022/10/29 09:09:05;;;;;;;51.58;19.90;;;14.80;99.90;;;;;;5069041;28;20102;-87
2022/10/29 09:11:46;;;;;;;50.35;19.52;;;14.80;99.90;;;;;;5067464;28;20052;-86
2022/10/29 09:14:38;;;;;;;52.85;17.80;;;14.80;99.90;;;;;;5069330;28;20044;-85
2022/10/29 09:17:25;;;;;;;47.47;18.90;;;14.80;99.90;;;;;;5068544;28;20048;-88
2022/10/29 09:20:14;;;;;;;44.42;17.30;;;14.80;99.90;;;;;;5067566;28;20106;-87
2022/10/29 09:23:09;;;;;;;47.03;18.48;;;14.80;99.90;;;;;;5068800;28;20051;-87
2022/10/29 09:25:55;;;;;;;42.83;19.10;;;14.80;99.90;;;;;;5066111;28;20443;-87
2022/10/29 09:28:38;;;;;;;44.50;18.52;;;14.80;99.90;;;;;;5067066;28;20048;-87
2022/10/29 09:31:16;;;;;;;43.20;18.88;;;14.80;99.90;;;;;;5068337;28;20077;-85
2022/10/29 09:33:45;;;;;;;49.25;19.42;;;14.90;99.90;;;;;;5067661;28;20083;-86
2022/10/29 09:36:17;;;;;;;45.13;18.30;;;14.90;99.90;;;;;;5068377;28;20458;-88
2022/10/29 09:39:03;;;;;;;43.15;19.02;;;14.90;99.90;;;;;;5068907;28;20048;-88
2022/10/29 09:41:33;;;;;;;50.28;18.40;;;15.00;99.90;;;;;;5067304;28;20055;-89
2022/10/29 09:44:15;;;;;;;42.30;18.15;;;15.00;99.90;;;;;;5068812;28;20044;-89
2022/10/29 09:46:58;;;;;;;49.17;21.67;;;15.00;99.90;;;;;;5067070;28;20036;-86
2022/10/29 09:49:24;;;;;;;;;;;15.10;99.90;;;;;;5080518;28;20351;-89
2022/10/29 09:52:18;;;;;;;39.67;17.77;;;15.40;99.90;;;;;;5068839;28;19920;-90
2022/10/29 09:54:44;;;;;;;38.20;18.52;;;15.20;99.90;;;;;;5052120;28;20050;-87
2022/10/29 09:57:23;;;;;;;45.50;18.92;;;15.20;99.90;;;;;;5079425;28;20411;-87
2022/10/29 10:00:00;;;;;;;34.08;18.88;;;15.30;99.90;;;;;;5075003;28;20047;-86
2022/10/29 10:02:41;;;;;;;43.15;17.48;;;15.20;99.90;;;;;;5089977;28;20043;-85
2022/10/29 10:05:15;;;;;;;36.55;19.50;;;15.30;99.90;;;;;;5083807;28;20043;-88
2022/10/29 10:07:41;;;;;;;37.45;19.17;;;15.30;99.90;;;;;;5092097;28;20040;-86
2022/10/29 10:10:19;;;;;;;39.10;17.77;;;15.30;99.90;;;;;;5093570;28;20032;-88
2022/10/29 10:12:48;;;;;;;40.30;18.00;;;15.30;99.90;;;;;;5090634;28;20360;-86
2022/10/29 10:15:27;;;;;;;43.67;18.38;;;15.50;99.90;;;;;;5079669;28;20132;-85
2022/10/29 10:18:04;;;;;;;43.45;20.58;;;15.40;99.90;;;;;;5091857;28;20079;-89
2022/10/29 10:21:01;;;;;;;38.55;18.65;;;15.50;99.90;;;;;;5092355;28;20058;-87
2022/10/29 10:23:37;;;;;;;30.10;16.60;;;15.50;99.90;;;;;;5092206;28;20040;-89
2022/10/29 10:26:03;;;;;;;42.35;18.98;;;15.50;99.90;;;;;;5084258;28;20052;-88
2022/10/29 10:28:30;;;;;;;35.97;16.17;;;15.60;99.90;;;;;;5069883;28;20119;-85
2022/10/29 10:31:08;;;;;;;28.98;16.23;;;15.70;99.90;;;;;;5070138;28;20459;-87
2022/10/29 10:33:42;;;;;;;31.92;16.05;;;15.80;99.90;;;;;;5068446;28;20124;-89
2022/10/29 10:36:09;;;;;;;36.47;16.38;;;15.90;99.90;;;;;;5069009;28;20503;-86
2022/10/29 10:38:43;;;;;;;33.70;16.27;;;16.00;99.90;;;;;;5069257;28;20071;-87
2022/10/29 10:41:11;;;;;;;30.38;15.07;;;16.10;99.90;;;;;;5066329;28;20044;-88
2022/10/29 10:43:40;;;;;;;29.55;13.63;;;16.10;99.90;;;;;;5067741;28;20048;-86
2022/10/29 10:46:31;;;;;;;34.20;15.87;;;16.20;99.90;;;;;;5084740;28;20047;-87
2022/10/29 10:49:01;;;;;;;34.28;14.07;;;16.30;99.90;;;;;;5064949;28;20483;-88
2022/10/29 10:51:30;;;;;;;31.02;12.68;;;16.30;99.90;;;;;;5067831;28;20067;-87
2022/10/29 10:53:58;;;;;;;27.58;12.65;;;16.40;99.90;;;;;;5066609;28;20401;-84
2022/10/29 10:56:23;;;;;;;25.13;11.50;;;16.50;99.90;;;;;;5068098;28;20101;-87
2022/10/29 10:59:13;;;;;;;24.88;10.93;;;16.60;99.90;;;;;;5069926;28;20499;-86
2022/10/29 11:01:44;;;;;;;22.30;10.57;;;16.70;99.90;;;;;;5071234;28;20488;-85
2022/10/29 11:04:23;;;;;;;22.30;11.00;;;16.80;99.90;;;;;;5071805;28;20079;-87
2022/10/29 11:06:51;;;;;;;19.50;9.13;;;16.90;99.90;;;;;;5070396;28;20093;-88
2022/10/29 11:09:32;;;;;;;24.65;10.13;;;17.00;99.90;;;;;;5072035;28;20052;-90
2022/10/29 11:12:14;;;;;;;26.55;9.65;;;17.00;99.90;;;;;;5070989;28;20052;-90
2022/10/29 11:14:53;;;;;;;24.80;9.18;;;17.10;99.90;;;;;;5072473;28;20040;-88
2022/10/29 11:17:27;;;;;;;21.92;8.55;;;17.20;99.90;;;;;;5074027;28;20063;-88
2022/10/29 11:20:00;;;;;;;20.95;8.70;;;17.20;99.90;;;;;;5072099;28;20365;-89
2022/10/29 11:22:29;;;;;;;17.30;7.95;;;17.30;99.90;;;;;;5073634;28;20055;-91
2022/10/29 11:25:18;;;;;;;18.15;7.75;;;17.30;99.90;;;;;;5073998;28;20048;-90
2022/10/29 11:28:08;;;;;;;16.38;7.50;;;17.40;99.90;;;;;;5073547;28;20097;-93
2022/10/29 11:30:41;;;;;;;17.70;7.10;;;17.50;99.90;;;;;;5076323;28;20146;-95
2022/10/29 11:33:24;;;;;;;17.27;7.18;;;17.50;99.90;;;;;;5060485;28;20505;-94
2022/10/29 11:35:53;;;;;;;;;;;17.60;99.90;;;;;;5061111;28;20455;-96
2022/10/29 11:38:35;;;;;;;20.55;6.57;;;17.60;99.90;;;;;;5077426;28;20286;-93
2022/10/29 11:41:44;;;;;;;13.55;5.60;;;17.70;99.90;;;;;;5076409;28;20040;-93
2022/10/29 11:44:12;;;;;;;18.55;7.95;;;17.70;99.90;;;;;;5023652;28;20142;-87
2022/10/29 11:47:03;;;;;;;18.50;6.63;;;17.80;99.90;;;;;;5070068;28;20040;-86
2022/10/29 11:50:08;;;;;;;22.92;7.63;;;17.90;99.90;;;;;;5053250;28;20052;-87
2022/10/29 11:52:47;;;;;;;19.48;7.43;;;17.90;99.90;;;;;;5069859;28;20446;-87
2022/10/29 11:55:37;;;;;;;13.98;8.02;;;17.90;99.90;;;;;;5069727;28;20450;-86
2022/10/29 11:58:15;;;;;;;20.38;9.32;;;17.90;99.90;;;;;;5069387;28;20059;-86
2022/10/29 12:01:27;;;;;;;21.33;9.65;;;18.10;99.90;;;;;;5071487;28;20051;-88
2022/10/29 12:04:14;;;;;;;22.98;10.07;;;18.20;99.90;;;;;;5042428;28;20254;-86
2022/10/29 12:07:00;;;;;;;29.27;10.18;;;18.30;99.90;;;;;;5085739;28;20127;-87
2022/10/29 12:09:50;;;;;;;18.58;8.90;;;18.40;99.90;;;;;;5053607;28;20048;-88
2022/10/29 12:12:29;;;;;;;19.27;9.20;;;18.40;99.90;;;;;;5070435;28;20044;-87
2022/10/29 12:15:23;;;;;;;23.60;9.07;;;18.30;99.90;;;;;;5055238;28;20627;-88
2022/10/29 12:18:04;;;;;;;21.50;10.25;;;18.30;99.90;;;;;;5046247;28;20073;-85
2022/10/29 12:20:37;;;;;;;21.23;9.82;;;18.30;99.90;;;;;;5070041;28;20131;-86
2022/10/29 12:23:15;;;;;;;23.30;9.38;;;18.30;99.90;;;;;;5072830;28;20437;-87
2022/10/29 12:26:08;;;;;;;17.60;9.02;;;18.30;99.90;;;;;;5073794;28;20074;-86
2022/10/29 12:28:47;;;;;;;20.48;9.63;;;18.30;99.90;;;;;;5073777;28;20548;-86
2022/10/29 12:31:28;;;;;;;20.77;9.15;;;18.30;99.90;;;;;;5076454;28;20410;-86
2022/10/29 12:34:04;;;;;;;26.83;10.05;;;18.40;99.90;;;;;;5072444;28;20046;-86
2022/10/29 12:36:42;;;;;;;16.50;9.15;;;18.30;99.90;;;;;;5072415;28;20051;-89
2022/10/29 12:39:17;;;;;;;17.80;8.82;;;18.30;99.90;;;;;;5072599;28;20044;-88
2022/10/29 12:41:47;;;;;;;20.92;9.35;;;18.30;99.90;;;;;;5068969;28;20237;-88
2022/10/29 12:44:35;;;;;;;19.65;9.00;;;18.20;99.90;;;;;;5072198;28;20047;-86
2022/10/29 12:47:25;;;;;;;20.25;9.02;;;18.20;99.90;;;;;;5069852;28;20190;-85
2022/10/29 12:50:04;;;;;;;20.23;8.55;;;18.30;99.90;;;;;;5069040;28;20032;-86
2022/10/29 12:52:46;;;;;;;23.77;8.63;;;18.30;99.90;;;;;;5069448;28;20044;-87
2022/10/29 12:55:14;;;;;;;14.52;8.68;;;18.50;99.90;;;;;;5068790;28;20051;-86